createdAt,value
2022-08-24T00:00:46.206Z,98600.47
2022-08-24T00:05:48.542Z,98602.06
2022-08-24T00:10:50.564Z,98597.75
2022-08-24T00:15:52.526Z,98596.28
2022-08-24T00:20:54.843Z,98603.41
2022-08-24T00:25:57.749Z,98598.22
2022-08-24T00:31:00.374Z,98595.84
2022-08-24T00:36:02.729Z,98601.34
2022-08-24T00:41:06.937Z,98602.91
2022-08-24T00:46:38.327Z,98598.94
2022-08-24T00:51:47.608Z,98588.03
2022-08-24T00:56:57.332Z,98593.88
2022-08-24T01:02:06.286Z,98591.25
2022-08-24T01:07:17.293Z,98580.69
2022-08-24T01:12:19.946Z,98592.09
2022-08-24T01:17:41.309Z,98591.66
2022-08-24T01:22:56.721Z,98599.13
2022-08-24T01:28:05.550Z,98594.47
2022-08-24T01:33:10.394Z,98592.09
2022-08-24T01:38:12.450Z,98603.84
2022-08-24T01:43:15.244Z,98590.41
2022-08-24T01:48:23.053Z,98587.31
2022-08-24T01:53:27.538Z,98584.47
2022-08-24T01:58:29.553Z,98591.97
2022-08-24T02:03:31.452Z,98594.72
2022-08-24T02:08:36.642Z,98593.88
2022-08-24T02:13:40.575Z,98590.63
2022-08-24T02:18:42.667Z,98591.78
2022-08-24T02:23:44.732Z,98591.03
2022-08-24T02:28:46.768Z,98591.81
2022-08-24T02:33:49.048Z,98587.19
2022-08-24T02:38:51.274Z,98589.22
2022-08-24T02:43:57.054Z,98578.16
2022-08-24T02:49:11.065Z,98588.72
2022-08-24T02:54:18.633Z,98600.50
2022-08-24T02:59:23.579Z,98593.88
2022-08-24T03:04:26.266Z,98596.44
2022-08-24T03:09:28.871Z,98601.03
2022-08-24T03:14:32.316Z,98597.28
2022-08-24T03:19:34.423Z,98608.28
2022-08-24T03:24:36.358Z,98609.03
2022-08-24T03:29:38.364Z,98615.28
2022-08-24T03:34:41.564Z,98621.44
2022-08-24T03:39:43.668Z,98621.25
2022-08-24T03:44:46.335Z,98622.72
2022-08-24T03:49:50.653Z,98633.72
2022-08-24T03:54:52.838Z,98627.81
2022-08-24T03:59:56.090Z,98630.56
2022-08-24T04:04:58.267Z,98628.31
2022-08-24T04:10:01.631Z,98629.91
2022-08-24T04:15:05.245Z,98642.09
2022-08-24T04:20:08.973Z,98643.69
2022-08-24T04:25:14.017Z,98644.13
2022-08-24T04:30:16.003Z,98634.34
2022-08-24T04:35:39.201Z,98624.97
2022-08-24T04:40:42.903Z,98630.84
2022-08-24T04:45:51.060Z,98634.81
2022-08-24T04:50:54.956Z,98639.50
2022-08-24T04:55:57.822Z,98649.63
2022-08-24T05:01:00.216Z,98659.84
2022-08-24T05:06:02.356Z,98664.06
2022-08-24T05:11:08.385Z,98655.75
2022-08-24T05:16:13.891Z,98659.53
2022-08-24T05:21:19.414Z,98659.31
2022-08-24T05:26:26.421Z,98654.88
2022-08-24T05:31:32.028Z,98664.50
2022-08-24T05:36:39.929Z,98661.31
2022-08-24T05:41:46.589Z,98660.84
2022-08-24T05:46:58.324Z,98669.38
2022-08-24T05:52:00.682Z,98677.53
2022-08-24T05:57:05.144Z,98676.72
2022-08-24T06:02:33.836Z,98681.38
2022-08-24T06:07:36.260Z,98687.63
2022-08-24T06:12:38.788Z,98687.53
2022-08-24T06:17:41.559Z,98690.16
2022-08-24T06:22:44.601Z,98690.44
2022-08-24T06:27:47.016Z,98695.09
2022-08-24T06:32:49.026Z,98691.47
2022-08-24T06:38:19.567Z,98696.78
2022-08-24T06:43:26.470Z,98700.72
2022-08-24T06:48:30.566Z,98703.84
2022-08-24T06:53:32.551Z,98705.25
2022-08-24T06:58:36.002Z,98705.81
2022-08-24T07:03:42.318Z,98712.75
2022-08-24T07:09:03.609Z,98717.44
2022-08-24T07:14:06.878Z,98708.53
2022-08-24T07:19:09.544Z,98711.22
2022-08-24T07:24:11.517Z,98718.44
2022-08-24T07:29:44.038Z,98720.59
2022-08-24T07:34:39.617Z,98719.66
2022-08-24T07:39:43.071Z,98730.63
2022-08-24T07:44:45.904Z,98729.09
2022-08-24T07:49:49.390Z,98727.38
2022-08-24T07:54:51.770Z,98735.22
2022-08-24T07:59:54.213Z,98742.25
2022-08-24T08:04:56.815Z,98748.06
2022-08-24T08:10:02.668Z,98749.25
2022-08-24T08:15:08.981Z,98742.88
2022-08-24T08:20:13.360Z,98755.34
2022-08-24T08:25:19.535Z,98761.84
2022-08-24T08:30:21.758Z,98754.19
2022-08-24T08:35:23.918Z,98761.84
2022-08-24T08:41:04.642Z,98752.69
2022-08-24T08:46:40.778Z,98759.56
2022-08-24T08:51:51.683Z,98764.69
2022-08-24T08:57:06.495Z,98753.53
2022-08-24T09:02:33.704Z,98752.09
2022-08-24T09:07:56.277Z,98747.69
2022-08-24T09:13:23.802Z,98744.31
2022-08-24T19:20:03.956Z,98716.88
2022-08-24T19:25:07.038Z,98723.16
2022-08-24T19:30:09.917Z,98723.72
2022-08-24T19:35:14.844Z,98720.25
2022-08-24T19:40:17.922Z,98716.47
2022-08-24T19:45:45.154Z,98719.19
2022-08-24T19:50:47.033Z,98734.41
2022-08-24T19:55:50.362Z,98719.44
2022-08-24T20:01:01.815Z,98719.53
2022-08-24T20:06:03.931Z,98730.56
2022-08-24T20:11:07.814Z,98727.19
2022-08-24T20:16:14.444Z,98723.28
2022-08-24T20:21:17.427Z,98728.47
2022-08-24T20:26:19.372Z,98729.94
2022-08-24T20:31:28.029Z,98721.56
2022-08-24T20:36:36.519Z,98724.06
2022-08-24T20:41:40.367Z,98717.06
2022-08-24T20:46:42.867Z,98722.66
2022-08-24T20:51:49.383Z,98718.50
2022-08-24T20:56:51.752Z,98723.22
2022-08-24T21:01:56.016Z,98718.38
2022-08-24T21:06:58.255Z,98714.91
2022-08-24T21:12:01.091Z,98718.25
2022-08-24T21:17:06.243Z,98716.75
2022-08-24T21:22:08.906Z,98720.66
2022-08-24T21:27:10.918Z,98715.22
2022-08-24T21:32:31.703Z,98732.81
2022-08-24T21:37:33.530Z,98721.16
2022-08-24T21:42:35.801Z,98725.28
2022-08-24T21:47:39.474Z,98723.00
2022-08-24T21:52:41.724Z,98729.03
2022-08-24T21:57:43.889Z,98732.97
2022-08-24T22:02:47.531Z,98734.91
2022-08-24T22:07:49.536Z,98731.94
2022-08-24T22:12:52.030Z,98730.16
2022-08-24T22:17:55.438Z,98725.22
2022-08-24T22:22:58.859Z,98724.59
2022-08-24T22:28:00.939Z,98715.72
2022-08-24T22:33:02.877Z,98716.22
2022-08-24T22:38:05.937Z,98714.28
2022-08-24T22:43:07.834Z,98708.81
2022-08-24T22:48:09.747Z,98716.34
2022-08-24T22:53:11.625Z,98701.81
2022-08-24T22:58:13.507Z,98696.78
2022-08-24T23:03:15.449Z,98701.44
2022-08-24T23:08:17.350Z,98701.34
2022-08-24T23:13:20.875Z,98700.47
2022-08-24T23:18:46.482Z,98689.50
2022-08-24T23:23:50.440Z,98684.16
2022-08-24T23:28:52.463Z,98684.69
2022-08-24T23:33:54.373Z,98689.00
2022-08-24T23:38:58.238Z,98668.06
2022-08-24T23:44:02.253Z,98681.28
2022-08-24T23:49:05.084Z,98679.81
2022-08-24T23:54:09.065Z,98665.53
2022-08-24T23:59:14.710Z,98661.13
